createdAt,value
2023-04-25T00:01:34.722Z,93547.00
2023-04-25T00:04:02.547Z,93552.00
2023-04-25T00:06:31.056Z,93554.00
2023-04-25T00:08:58.185Z,93538.00
2023-04-25T00:11:31.889Z,93536.00
2023-04-25T00:14:00.764Z,93534.00
2023-04-25T00:16:31.674Z,93530.00
2023-04-25T00:18:59.765Z,93531.00
2023-04-25T00:21:29.493Z,93535.00
2023-04-25T00:23:57.055Z,93533.00
2023-04-25T00:26:24.614Z,93527.00
2023-04-25T00:28:51.614Z,93522.00
2023-04-25T00:31:18.523Z,93510.00
2023-04-25T00:33:50.323Z,93510.00
2023-04-25T00:36:18.182Z,93509.00
2023-04-25T00:38:47.253Z,93500.00
2023-04-25T00:41:14.516Z,93492.00
2023-04-25T00:43:41.830Z,93501.00
2023-04-25T00:46:08.921Z,93512.00
2023-04-25T00:48:35.847Z,93514.00
2023-04-25T00:51:03.050Z,93506.00
2023-04-25T00:53:33.141Z,93507.00
2023-04-25T00:56:00.242Z,93511.00
2023-04-25T00:58:29.696Z,93507.00
2023-04-25T01:00:58.567Z,93501.00
2023-04-25T01:03:26.012Z,93500.00
2023-04-25T01:05:53.231Z,93501.00
2023-04-25T01:08:22.973Z,93500.00
2023-04-25T01:10:49.875Z,93500.00
2023-04-25T01:13:19.877Z,93503.00
2023-04-25T01:15:49.788Z,93500.00
2023-04-25T01:18:21.426Z,93499.00
2023-04-25T01:20:48.361Z,93507.00
2023-04-25T01:23:15.865Z,93497.00
2023-04-25T01:25:43.015Z,93520.00
2023-04-25T01:28:12.312Z,93539.00
2023-04-25T01:30:44.529Z,93538.00
2023-04-25T01:33:12.504Z,93539.00
2023-04-25T01:35:39.646Z,93542.00
2023-04-25T01:38:08.731Z,93537.00
2023-04-25T01:40:38.665Z,93517.00
2023-04-25T01:43:07.695Z,93511.00
2023-04-25T01:45:37.455Z,93508.00
2023-04-25T01:48:07.010Z,93498.00
2023-04-25T01:50:34.243Z,93502.00
2023-04-25T01:53:03.783Z,93501.00
2023-04-25T01:55:30.703Z,93499.00
2023-04-25T01:57:57.634Z,93497.00
2023-04-25T02:00:27.067Z,93491.00
2023-04-25T02:02:54.689Z,93489.00
2023-04-25T02:05:21.850Z,93474.00
2023-04-25T02:07:49.432Z,93484.00
2023-04-25T02:10:16.405Z,93475.00
2023-04-25T02:12:45.665Z,93475.00
2023-04-25T02:15:15.233Z,93470.00
2023-04-25T02:17:42.189Z,93473.00
2023-04-25T02:20:11.089Z,93471.00
2023-04-25T02:22:40.509Z,93459.00
2023-04-25T02:25:08.077Z,93461.00
2023-04-25T02:27:35.008Z,93451.00
2023-04-25T02:30:02.379Z,93445.00
2023-04-25T02:32:29.332Z,93451.00
2023-04-25T02:34:59.630Z,93460.00
2023-04-25T02:37:26.431Z,93458.00
2023-04-25T02:39:53.373Z,93461.00
2023-04-25T02:42:20.353Z,93458.00
2023-04-25T02:44:47.197Z,93451.00
2023-04-25T02:47:14.109Z,93447.00
2023-04-25T02:49:41.399Z,93449.00
2023-04-25T02:52:10.623Z,93454.00
2023-04-25T02:54:37.527Z,93447.00
2023-04-25T02:57:06.351Z,93447.00
2023-04-25T02:59:33.740Z,93446.00
2023-04-25T03:02:03.036Z,93452.00
2023-04-25T03:04:29.969Z,93435.00
2023-04-25T03:06:59.299Z,93451.00
2023-04-25T03:09:26.340Z,93452.00
2023-04-25T03:11:53.495Z,93458.00
2023-04-25T03:14:20.354Z,93462.00
2023-04-25T03:16:51.929Z,93457.00
2023-04-25T03:19:19.259Z,93459.00
2023-04-25T03:21:46.203Z,93450.00
2023-04-25T03:24:16.169Z,93447.00
2023-04-25T03:26:43.047Z,93449.00
2023-04-25T03:29:10.355Z,93447.00
2023-04-25T03:31:42.065Z,93446.00
2023-04-25T03:34:08.933Z,93443.00
2023-04-25T03:36:40.966Z,93442.00
2023-04-25T03:39:10.813Z,93448.00
2023-04-25T03:41:37.689Z,93436.00
2023-04-25T03:44:04.768Z,93442.00
2023-04-25T03:46:34.179Z,93430.00
2023-04-25T03:49:03.541Z,93455.00
2023-04-25T03:51:32.734Z,93452.00
2023-04-25T03:54:02.649Z,93447.00
2023-04-25T03:56:29.484Z,93440.00
2023-04-25T03:58:59.339Z,93448.00
2023-04-25T04:01:28.771Z,93441.00
2023-04-25T04:03:55.872Z,93447.00
2023-04-25T04:06:28.223Z,93444.00
2023-04-25T04:08:55.148Z,93442.00
2023-04-25T04:11:24.203Z,93437.00
2023-04-25T04:13:51.339Z,93448.00
2023-04-25T04:16:18.547Z,93455.00
2023-04-25T04:18:47.082Z,93446.00
2023-04-25T04:21:16.092Z,93448.00
2023-04-25T04:23:45.034Z,93446.00
2023-04-25T04:26:12.426Z,93438.00
2023-04-25T04:28:41.727Z,93436.00
2023-04-25T04:31:08.821Z,93432.00
2023-04-25T04:33:35.786Z,93432.00
2023-04-25T04:36:03.724Z,93436.00
2023-04-25T04:38:31.167Z,93436.00
2023-04-25T04:41:00.507Z,93428.00
2023-04-25T04:43:30.420Z,93426.00
2023-04-25T04:45:57.862Z,93432.00
2023-04-25T04:48:24.748Z,93422.00
2023-04-25T04:50:54.580Z,93428.00
2023-04-25T04:53:21.476Z,93428.00
2023-04-25T04:55:48.375Z,93436.00
2023-04-25T04:58:19.195Z,93433.00
2023-04-25T05:00:49.059Z,93437.00
2023-04-25T05:03:16.241Z,93427.00
2023-04-25T05:05:43.456Z,93437.00
2023-04-25T05:08:10.400Z,93384.00
2023-04-25T05:10:39.731Z,93433.00
2023-04-25T05:13:08.915Z,93432.00
2023-04-25T05:15:35.742Z,93431.00
2023-04-25T05:18:05.912Z,93432.00
2023-04-25T05:20:33.202Z,93429.00
2023-04-25T05:23:01.092Z,93430.00
2023-04-25T05:25:28.330Z,93415.00
2023-04-25T05:27:55.363Z,93428.00
2023-04-25T05:30:22.679Z,93437.00
2023-04-25T05:32:49.579Z,93430.00
2023-04-25T05:35:16.661Z,93421.00
2023-04-25T05:37:46.038Z,93424.00
2023-04-25T05:40:13.278Z,93434.00
2023-04-25T05:42:42.489Z,93436.00
2023-04-25T05:45:09.872Z,93435.00
2023-04-25T05:47:36.795Z,93447.00
2023-04-25T05:50:09.646Z,93438.00
2023-04-25T05:52:36.498Z,93437.00
2023-04-25T05:55:03.586Z,93430.00
2023-04-25T05:57:30.633Z,93429.00
2023-04-25T06:00:00.046Z,93433.00
2023-04-25T06:02:27.553Z,93427.00
2023-04-25T06:04:54.865Z,93426.00
2023-04-25T06:07:24.094Z,93416.00
2023-04-25T06:09:54.381Z,93424.00
2023-04-25T06:12:21.200Z,93428.00
2023-04-25T06:14:48.099Z,93427.00
2023-04-25T06:17:15.115Z,93431.00
2023-04-25T06:19:46.588Z,93433.00
2023-04-25T06:22:15.951Z,93440.00
2023-04-25T06:24:45.277Z,93445.00
2023-04-25T06:27:16.967Z,93444.00
2023-04-25T06:29:44.097Z,93438.00
2023-04-25T06:32:15.619Z,93433.00
2023-04-25T06:34:42.481Z,93444.00
2023-04-25T06:37:09.360Z,93438.00
2023-04-25T06:39:37.210Z,93432.00
2023-04-25T06:42:07.672Z,93440.00
2023-04-25T06:44:34.575Z,93437.00
2023-04-25T06:47:01.500Z,93434.00
2023-04-25T06:49:30.694Z,93433.00
2023-04-25T06:51:59.822Z,93435.00
2023-04-25T06:54:30.626Z,93428.00
2023-04-25T06:56:57.996Z,93429.00
2023-04-25T06:59:27.062Z,93435.00
2023-04-25T07:01:53.993Z,93430.00
2023-04-25T07:04:21.200Z,93432.00
2023-04-25T07:06:50.649Z,93435.00
2023-04-25T07:09:17.695Z,93431.00
2023-04-25T07:11:44.630Z,93427.00
2023-04-25T07:14:11.578Z,93429.00
2023-04-25T07:16:38.668Z,93436.00
2023-04-25T07:19:07.810Z,93440.00
2023-04-25T07:21:35.196Z,93438.00
2023-04-25T07:24:02.070Z,93440.00
2023-04-25T07:26:29.037Z,93441.00
2023-04-25T07:28:58.378Z,93447.00
2023-04-25T07:31:25.821Z,93456.00
2023-04-25T07:33:54.746Z,93457.00
2023-04-25T07:36:22.003Z,93453.00
2023-04-25T07:38:49.122Z,93450.00
2023-04-25T07:41:16.263Z,93455.00
2023-04-25T07:43:43.158Z,93461.00
2023-04-25T07:46:12.183Z,93459.00
2023-04-25T07:48:41.566Z,93466.00
2023-04-25T07:51:10.865Z,93459.00
2023-04-25T07:53:38.665Z,93470.00
2023-04-25T07:56:08.218Z,93460.00
2023-04-25T07:58:35.044Z,93478.00
2023-04-25T08:01:04.278Z,93481.00
2023-04-25T08:03:31.341Z,93477.00
2023-04-25T08:06:01.772Z,93491.00
2023-04-25T08:08:32.471Z,93495.00
2023-04-25T08:11:01.649Z,93494.00
2023-04-25T08:13:28.502Z,93503.00
2023-04-25T08:15:55.869Z,93506.00
2023-04-25T08:18:22.823Z,93507.00
2023-04-25T08:20:52.774Z,93515.00
2023-04-25T08:23:19.639Z,93518.00
2023-04-25T08:25:46.499Z,93518.00
2023-04-25T08:28:16.185Z,93529.00
2023-04-25T08:30:44.052Z,93535.00
2023-04-25T08:33:13.524Z,93535.00
2023-04-25T08:35:40.506Z,93541.00
2023-04-25T08:38:08.058Z,93537.00
2023-04-25T08:40:40.710Z,93537.00
2023-04-25T08:43:12.856Z,93548.00
2023-04-25T08:45:42.289Z,93559.00
2023-04-25T08:48:14.382Z,93550.00
2023-04-25T08:50:52.131Z,93564.00
2023-04-25T08:53:30.942Z,93567.00
2023-04-25T08:56:00.345Z,93565.00
2023-04-25T08:58:29.466Z,93571.00
2023-04-25T09:00:58.874Z,93575.00
2023-04-25T09:03:25.905Z,93585.00
2023-04-25T09:05:53.828Z,93582.00
2023-04-25T09:08:21.158Z,93598.00
2023-04-25T09:10:50.238Z,93592.00
2023-04-25T09:13:29.784Z,93597.00
2023-04-25T09:15:59.391Z,93600.00
2023-04-25T09:18:32.164Z,93603.00
2023-04-25T09:21:14.425Z,93601.00
2023-04-25T09:23:52.998Z,93604.00
2023-04-25T09:26:24.476Z,93608.00
2023-04-25T09:29:09.281Z,93616.00
2023-04-25T09:31:38.763Z,93615.00
2023-04-25T09:34:07.948Z,93614.00
2023-04-25T09:36:38.051Z,93613.00
2023-04-25T09:39:16.578Z,93621.00
2023-04-25T09:41:43.642Z,93622.00
2023-04-25T09:44:14.214Z,93623.00
2023-04-25T09:46:43.138Z,93619.00
2023-04-25T09:49:12.396Z,93630.00
2023-04-25T09:51:41.744Z,93632.00
2023-04-25T09:54:08.688Z,93626.00
2023-04-25T09:56:40.657Z,93628.00
2023-04-25T09:59:08.326Z,93633.00
2023-04-25T10:01:39.513Z,93630.00
2023-04-25T10:04:11.857Z,93634.00
2023-04-25T10:06:39.507Z,93630.00
2023-04-25T10:09:08.863Z,93620.00
2023-04-25T10:11:36.877Z,93625.00
2023-04-25T10:14:04.030Z,93618.00
2023-04-25T10:16:31.994Z,93624.00
2023-04-25T10:18:58.965Z,93623.00
2023-04-25T10:21:28.508Z,93614.00
2023-04-25T10:23:58.654Z,93621.00
2023-04-25T10:26:25.971Z,93613.00
2023-04-25T10:29:02.185Z,93616.00
2023-04-25T10:31:32.052Z,93624.00
2023-04-25T10:34:02.070Z,93622.00
2023-04-25T10:36:33.149Z,93617.00
2023-04-25T10:39:09.776Z,93616.00
2023-04-25T10:41:59.670Z,93620.00
2023-04-25T10:44:35.891Z,93622.00
2023-04-25T10:47:06.746Z,93630.00
2023-04-25T10:49:45.876Z,93628.00
2023-04-25T10:52:25.820Z,93641.00
2023-04-25T10:54:57.883Z,93632.00
2023-04-25T10:57:38.787Z,93638.00
2023-04-25T11:00:06.309Z,93648.00
2023-04-25T11:02:39.346Z,93643.00
2023-04-25T11:05:07.092Z,93642.00
2023-04-25T11:08:06.496Z,93646.00
2023-04-25T11:10:41.237Z,93645.00
2023-04-25T11:13:08.109Z,93642.00
2023-04-25T11:15:35.029Z,93647.00
2023-04-25T11:18:02.183Z,93645.00
2023-04-25T11:20:31.866Z,93640.00
2023-04-25T11:25:35.582Z,93644.00
2023-04-25T11:28:07.970Z,93642.00
2023-04-25T11:30:34.847Z,93645.00
2023-04-25T11:33:03.691Z,93648.00
2023-04-25T11:35:30.648Z,93634.00
2023-04-25T11:37:57.614Z,93643.00
2023-04-25T11:40:24.952Z,93642.00
2023-04-25T11:42:56.136Z,93652.00
2023-04-25T11:45:24.623Z,93650.00
2023-04-25T11:47:54.116Z,93648.00
2023-04-25T11:50:21.083Z,93651.00
2023-04-25T11:52:51.654Z,93658.00
2023-04-25T11:55:21.130Z,93669.00
2023-04-25T11:57:52.090Z,93664.00
2023-04-25T12:00:23.942Z,93664.00
2023-04-25T12:03:01.685Z,93675.00
2023-04-25T12:05:34.824Z,93675.00
2023-04-25T12:08:16.542Z,93665.00
2023-04-25T12:10:46.614Z,93680.00
2023-04-25T12:13:24.335Z,93664.00
2023-04-25T12:15:58.032Z,93676.00
2023-04-25T12:18:28.560Z,93665.00
2023-04-25T12:20:59.198Z,93664.00
2023-04-25T12:23:32.627Z,93670.00
2023-04-25T12:25:59.500Z,93665.00
2023-04-25T12:28:29.622Z,93671.00
2023-04-25T12:30:59.488Z,93681.00
2023-04-25T12:33:35.979Z,93683.00
2023-04-25T12:36:09.371Z,93674.00
2023-04-25T12:38:44.446Z,93678.00
2023-04-25T12:41:11.451Z,93668.00
2023-04-25T12:43:38.368Z,93678.00
2023-04-25T12:46:10.427Z,93683.00
2023-04-25T12:48:39.285Z,93675.00
2023-04-25T12:51:06.415Z,93688.00
2023-04-25T12:53:34.483Z,93680.00
2023-04-25T12:56:02.734Z,93679.00
2023-04-25T12:58:29.734Z,93689.00
2023-04-25T13:00:56.576Z,93698.00
2023-04-25T13:03:23.657Z,93703.00
2023-04-25T13:05:55.349Z,93703.00
2023-04-25T13:08:22.416Z,93699.00
2023-04-25T13:10:49.610Z,93702.00
2023-04-25T13:13:17.551Z,93707.00
2023-04-25T13:15:44.768Z,93718.00
2023-04-25T13:18:14.271Z,93709.00
2023-04-25T13:20:41.292Z,93710.00
2023-04-25T13:23:08.242Z,93704.00
2023-04-25T13:25:35.202Z,93706.00
2023-04-25T13:28:02.864Z,93710.00
2023-04-25T13:30:29.997Z,93707.00
2023-04-25T13:32:58.190Z,93710.00
2023-04-25T13:35:27.511Z,93698.00
2023-04-25T13:37:54.349Z,93707.00
2023-04-25T13:40:22.819Z,93713.00
2023-04-25T13:42:52.047Z,93707.00
2023-04-25T13:45:19.249Z,93713.00
2023-04-25T13:47:46.306Z,93716.00
2023-04-25T13:50:14.662Z,93714.00
2023-04-25T13:52:41.872Z,93715.00
2023-04-25T13:55:11.817Z,93720.00
2023-04-25T13:57:40.017Z,93712.00
2023-04-25T14:00:12.180Z,93720.00
2023-04-25T14:02:39.556Z,93720.00
2023-04-25T14:05:07.897Z,93717.00
2023-04-25T14:07:36.153Z,93726.00
2023-04-25T14:10:05.403Z,93720.00
2023-04-25T14:12:33.992Z,93727.00
2023-04-25T14:15:04.327Z,93728.00
2023-04-25T14:17:33.366Z,93731.00
2023-04-25T14:20:02.590Z,93743.00
2023-04-25T14:22:29.518Z,93735.00
2023-04-25T14:24:56.339Z,93736.00
2023-04-25T14:27:23.167Z,93736.00
2023-04-25T14:29:49.965Z,93734.00
2023-04-25T14:32:17.275Z,93724.00
2023-04-25T14:34:46.636Z,93735.00
2023-04-25T14:37:16.078Z,93729.00
2023-04-25T14:39:46.499Z,93732.00
2023-04-25T14:42:13.513Z,93736.00
2023-04-25T14:44:40.531Z,93729.00
2023-04-25T14:47:09.813Z,93732.00
2023-04-25T14:49:38.939Z,93739.00
2023-04-25T14:52:08.460Z,93737.00
2023-04-25T14:54:37.634Z,93745.00
2023-04-25T14:57:04.581Z,93750.00
2023-04-25T14:59:34.080Z,93750.00
2023-04-25T15:02:01.013Z,93740.00
2023-04-25T15:04:27.965Z,93743.00
2023-04-25T15:06:55.402Z,93744.00
2023-04-25T15:09:24.082Z,93746.00
2023-04-25T15:11:51.683Z,93750.00
2023-04-25T15:14:19.055Z,93753.00
2023-04-25T15:16:46.019Z,93764.00
2023-04-25T15:19:12.905Z,93762.00
2023-04-25T15:21:40.866Z,93765.00
2023-04-25T15:24:10.227Z,93760.00
2023-04-25T15:26:39.327Z,93762.00
2023-04-25T15:29:08.713Z,93762.00
2023-04-25T15:31:35.659Z,93767.00
2023-04-25T15:34:03.305Z,93775.00
2023-04-25T15:36:32.138Z,93770.00
2023-04-25T15:39:01.511Z,93776.00
2023-04-25T15:41:30.970Z,93769.00
2023-04-25T15:44:00.844Z,93770.00
2023-04-25T15:46:28.406Z,93770.00
2023-04-25T15:48:57.819Z,93776.00
2023-04-25T15:51:26.987Z,93780.00
2023-04-25T15:53:54.328Z,93762.00
2023-04-25T15:56:21.481Z,93774.00
2023-04-25T15:58:51.685Z,93772.00
2023-04-25T16:01:24.360Z,93779.00
2023-04-25T16:03:52.412Z,93782.00
2023-04-25T16:06:22.347Z,93775.00
2023-04-25T16:08:52.170Z,93778.00
2023-04-25T16:11:21.591Z,93772.00
2023-04-25T16:13:51.419Z,93774.00
2023-04-25T16:16:18.634Z,93774.00
2023-04-25T16:18:45.546Z,93782.00
2023-04-25T16:21:17.116Z,93786.00
2023-04-25T16:23:44.301Z,93780.00
2023-04-25T16:26:11.295Z,93782.00
2023-04-25T16:28:40.572Z,93773.00
2023-04-25T16:31:10.124Z,93783.00
2023-04-25T16:33:37.081Z,93781.00
2023-04-25T16:36:04.348Z,93788.00
2023-04-25T16:38:31.309Z,93789.00
2023-04-25T16:40:58.298Z,93788.00
2023-04-25T16:43:25.232Z,93795.00
2023-04-25T16:45:52.236Z,93789.00
2023-04-25T16:48:20.855Z,93786.00
2023-04-25T16:50:47.784Z,93790.00
2023-04-25T16:53:17.749Z,93778.00
2023-04-25T16:55:44.885Z,93796.00
2023-04-25T16:58:15.127Z,93794.00
2023-04-25T17:00:47.416Z,93792.00
2023-04-25T17:03:15.417Z,93806.00
2023-04-25T17:05:44.564Z,93812.00
2023-04-25T17:08:11.923Z,93806.00
2023-04-25T17:10:43.622Z,93808.00
2023-04-25T17:13:12.730Z,93807.00
2023-04-25T17:15:42.231Z,93803.00
2023-04-25T17:18:09.321Z,93813.00
2023-04-25T17:20:36.393Z,93820.00
2023-04-25T17:23:03.383Z,93826.00
2023-04-25T17:25:30.531Z,93824.00
2023-04-25T17:27:57.643Z,93829.00
2023-04-25T17:30:24.521Z,93825.00
2023-04-25T17:32:54.062Z,93835.00
2023-04-25T17:35:23.477Z,93825.00
2023-04-25T17:37:55.209Z,93830.00
2023-04-25T17:40:22.494Z,93834.00
2023-04-25T17:42:52.087Z,93835.00
2023-04-25T17:45:19.178Z,93844.00
2023-04-25T17:47:46.734Z,93842.00
2023-04-25T17:50:16.539Z,93845.00
2023-04-25T17:52:45.092Z,93848.00
2023-04-25T17:55:12.126Z,93858.00
2023-04-25T17:57:39.016Z,93860.00
2023-04-25T18:00:11.464Z,93865.00
2023-04-25T18:02:38.962Z,93852.00
2023-04-25T18:05:09.933Z,93867.00
2023-04-25T18:07:39.779Z,93869.00
2023-04-25T18:10:07.773Z,93869.00
2023-04-25T18:12:38.009Z,93873.00
2023-04-25T18:15:06.976Z,93875.00
2023-04-25T18:17:40.591Z,93860.00
2023-04-25T18:20:15.765Z,93882.00
2023-04-25T18:22:45.158Z,93884.00
2023-04-25T18:25:18.275Z,93885.00
2023-04-25T18:27:51.170Z,93880.00
2023-04-25T18:30:18.034Z,93882.00
2023-04-25T18:32:45.034Z,93893.00
2023-04-25T18:35:12.302Z,93898.00
2023-04-25T18:37:40.392Z,93898.00
2023-04-25T18:40:14.072Z,93899.00
2023-04-25T18:42:41.314Z,93901.00
2023-04-25T18:45:09.549Z,93909.00
2023-04-25T18:47:36.457Z,93912.00
2023-04-25T18:50:04.900Z,93905.00
2023-04-25T18:52:31.750Z,93913.00
2023-04-25T18:54:58.604Z,93920.00
2023-04-25T18:57:26.449Z,93916.00
2023-04-25T18:59:56.471Z,93915.00
2023-04-25T19:02:26.130Z,93925.00
2023-04-25T19:04:53.376Z,93930.00
2023-04-25T19:07:21.917Z,93926.00
2023-04-25T19:09:51.910Z,93937.00
2023-04-25T19:12:23.385Z,93940.00
2023-04-25T19:14:51.073Z,93946.00
2023-04-25T19:17:18.056Z,93951.00
2023-04-25T19:19:51.737Z,93945.00
2023-04-25T19:22:18.758Z,93946.00
2023-04-25T19:24:47.288Z,93951.00
2023-04-25T19:27:22.429Z,93948.00
2023-04-25T19:29:57.661Z,93955.00
2023-04-25T19:32:27.501Z,93956.00
2023-04-25T19:34:58.719Z,93959.00
2023-04-25T19:37:27.964Z,93963.00
2023-04-25T19:39:54.856Z,93964.00
2023-04-25T19:42:24.301Z,93963.00
2023-04-25T19:44:54.191Z,93958.00
2023-04-25T19:47:21.431Z,93958.00
2023-04-25T19:49:52.279Z,93955.00
2023-04-25T19:52:19.348Z,93950.00
2023-04-25T19:54:51.235Z,93952.00
2023-04-25T19:57:18.367Z,93960.00
2023-04-25T19:59:48.075Z,93961.00
2023-04-25T20:02:16.108Z,93958.00
2023-04-25T20:04:46.160Z,93962.00
2023-04-25T20:07:14.223Z,93967.00
2023-04-25T20:09:41.924Z,93964.00
2023-04-25T20:12:09.008Z,93959.00
2023-04-25T20:14:36.706Z,93969.00
2023-04-25T20:17:04.540Z,93959.00
2023-04-25T20:19:32.765Z,93958.00
2023-04-25T20:22:01.896Z,93970.00
2023-04-25T20:24:28.837Z,93968.00
2023-04-25T20:26:56.534Z,93974.00
2023-04-25T20:29:28.745Z,93971.00
2023-04-25T20:31:58.251Z,93968.00
2023-04-25T20:34:25.860Z,93971.00
2023-04-25T20:36:57.894Z,93971.00
2023-04-25T20:39:25.044Z,93966.00
2023-04-25T20:41:52.649Z,93970.00
2023-04-25T20:44:22.732Z,93971.00
2023-04-25T20:46:54.406Z,93987.00
2023-04-25T20:49:21.566Z,93980.00
2023-04-25T20:51:48.430Z,93970.00
2023-04-25T20:54:15.548Z,93976.00
2023-04-25T20:56:45.287Z,93974.00
2023-04-25T20:59:13.446Z,93986.00
2023-04-25T21:01:40.483Z,93986.00
2023-04-25T21:04:07.479Z,93986.00
2023-04-25T21:06:36.834Z,93985.00
2023-04-25T21:09:07.093Z,93984.00
2023-04-25T21:11:36.249Z,93994.00
2023-04-25T21:14:03.581Z,93988.00
2023-04-25T21:16:34.947Z,93976.00
2023-04-25T21:19:02.341Z,93982.00
2023-04-25T21:21:34.788Z,93985.00
2023-04-25T21:24:03.933Z,93981.00
2023-04-25T21:26:32.935Z,93987.00
2023-04-25T21:29:04.364Z,93994.00
2023-04-25T21:31:33.590Z,93993.00
2023-04-25T21:34:03.130Z,93993.00
2023-04-25T21:36:30.646Z,93998.00
2023-04-25T21:38:57.527Z,93992.00
2023-04-25T21:41:25.649Z,93990.00
2023-04-25T21:43:57.160Z,93984.00
2023-04-25T21:46:25.488Z,93990.00
2023-04-25T21:48:53.311Z,93997.00
2023-04-25T21:51:24.976Z,93994.00
2023-04-25T21:53:51.824Z,94000.00
2023-04-25T21:56:18.715Z,93995.00
2023-04-25T21:58:48.076Z,93996.00
2023-04-25T22:01:15.832Z,93996.00
2023-04-25T22:03:45.196Z,93992.00
2023-04-25T22:06:12.210Z,93990.00
2023-04-25T22:08:39.024Z,93995.00
2023-04-25T22:11:08.529Z,94001.00
2023-04-25T22:13:35.823Z,94003.00
2023-04-25T22:16:02.856Z,93999.00
2023-04-25T22:18:31.937Z,94004.00
2023-04-25T22:21:02.421Z,94010.00
2023-04-25T22:23:29.349Z,94018.00
2023-04-25T22:25:56.206Z,94025.00
2023-04-25T22:28:23.071Z,94028.00
2023-04-25T22:30:50.453Z,94015.00
2023-04-25T22:33:17.358Z,94006.00
2023-04-25T22:35:44.192Z,94000.00
2023-04-25T22:38:13.418Z,94028.00
2023-04-25T22:40:42.967Z,94034.00
2023-04-25T22:43:10.578Z,94032.00
2023-04-25T22:45:37.449Z,94030.00
2023-04-25T22:48:09.253Z,94028.00
2023-04-25T22:50:36.863Z,94028.00
2023-04-25T22:53:07.026Z,94036.00
2023-04-25T22:55:36.910Z,94035.00
2023-04-25T22:58:09.416Z,94034.00
2023-04-25T23:00:37.693Z,94038.00
2023-04-25T23:03:05.862Z,94040.00
2023-04-25T23:05:33.227Z,94039.00
2023-04-25T23:08:00.154Z,94022.00
2023-04-25T23:10:28.643Z,94027.00
2023-04-25T23:13:00.470Z,94018.00
2023-04-25T23:15:30.738Z,94027.00
2023-04-25T23:17:58.579Z,94033.00
2023-04-25T23:20:25.703Z,94031.00
2023-04-25T23:22:55.112Z,94028.00
2023-04-25T23:25:26.623Z,94033.00
2023-04-25T23:27:56.461Z,94024.00
2023-04-25T23:30:26.106Z,94002.00
2023-04-25T23:32:55.208Z,94009.00
2023-04-25T23:35:22.586Z,94004.00
2023-04-25T23:37:49.520Z,94021.00
2023-04-25T23:40:16.607Z,94016.00
2023-04-25T23:42:43.548Z,94013.00
2023-04-25T23:45:11.038Z,94020.00
2023-04-25T23:47:40.422Z,94023.00
2023-04-25T23:50:08.492Z,94030.00
2023-04-25T23:52:36.095Z,94030.00
2023-04-25T23:55:05.374Z,94030.00
2023-04-25T23:57:34.986Z,94031.00
